Flugplatz Antersberg (UL)

Hier findest Du alle Informationen zum Flugplatz Antersberg (UL).

Informationen für Piloten zum Flugplatz Antersberg

Hier findest Du alle relevanten Informationen, die Du als Pilot benötigst, um Antersberg anzufliegen.

Flugplatz: Antersberg ICAO-Code: UL Flugplatz
Frequenz Turm: 123,35 Mhz GAFOR Gebiet: -
Frequenz Ground: 123,35 Mhz Mogas: nein
Platzrunde: NO 0 ft Landegebühr: -
Platzhöhe: Sunrise: 03:19 Uhr UTC
Pisten: 13/31 - 950 m x 20 m, GRAS Sunset: 19:14 Uhr UTC

Mitglieder, die in Antersberg fliegen

Flugwetter am Flugplatz Antersberg

Die METAR Information stammen aus EDDM (46.08 km entfernt).

METAR Code:
2020/07/04 10:20
EDDM 041020Z 27007KT 230V300 9999 SCT045 22/12 Q1021 NOSIG

Flugschulen am Flugplatz Antersberg

Am Flugplatz Antersberg gibt es leider keine Flugschule.

Benachbarte Flugplätze und Flugschulen

Es gibt 15 weitere Flugplätze in einem Umkreis von 50 km um den Flugplatz Antersberg.

Jetzt anmelden

Passwort vergessen

Umfrage Archiv

Wären Rettungsgeräte keine Pflicht mehr, würdet Ihr Euer UL trotzdem mit einem ausstatten?

Ja
82.1 %
Nein
17.9 %
Stimmen: 195 | Diskussion
Anzeige: Roland Aircraft
Statistik Alle Mitglieder

Aktuell sind 28 Besucher online, davon 2 Mitglieder und 26 Gäste.


Mitglieder online:
BravoEcho  mbstar 

Anzeige: VFR Sprechfunk Simulator


Anzeige: Pocket FMS